Time;durP1;ratioP1;P1;durP2;ratioP2;P2;SDS_P1;SDS_P2;PMS_P1;PMS_P2;Temp;Humidity;BMP_temperature;BMP_pressure;BME280_temperature;BME280_humidity;BME280_pressure;Samples;Min_cycle;Max_cycle;Signal;HPM_P1;HPM_P2
2023/12/01 00:00:07;;;;;;;13.10;11.80;;;4.80;99.90;;;;;;5010968;28;20188;-84
2023/12/01 00:02:33;;;;;;;14.45;12.30;;;4.80;99.90;;;;;;5021356;28;20561;-84
2023/12/01 00:04:58;;;;;;;13.27;11.10;;;4.80;99.90;;;;;;5014102;28;20213;-84
2023/12/01 00:07:24;;;;;;;14.10;12.70;;;4.20;99.90;;;;;;5011394;28;20236;-84
2023/12/01 00:09:50;;;;;;;12.70;11.50;;;4.80;99.90;;;;;;5024481;28;20206;-84
2023/12/01 00:12:15;;;;;;;16.00;12.60;;;4.90;99.90;;;;;;5012445;28;20209;-84
2023/12/01 00:14:41;;;;;;;13.87;12.00;;;5.40;99.90;;;;;;5009869;28;20457;-84
2023/12/01 00:17:07;;;;;;;14.80;11.63;;;5.30;99.90;;;;;;5008002;28;20183;-84
2023/12/01 00:19:32;;;;;;;15.55;12.65;;;5.20;99.90;;;;;;5005718;28;20576;-84
2023/12/01 00:21:58;;;;;;;13.33;11.97;;;5.10;99.90;;;;;;5008145;28;20179;-84
2023/12/01 00:24:23;;;;;;;13.20;11.57;;;4.40;99.90;;;;;;5014754;28;20301;-84
2023/12/01 00:26:49;;;;;;;12.83;11.53;;;4.70;99.90;;;;;;5009558;28;20195;-84
2023/12/01 00:29:15;;;;;;;15.03;12.10;;;5.10;99.90;;;;;;5014840;28;20221;-84
2023/12/01 00:31:40;;;;;;;13.10;11.80;;;5.20;99.90;;;;;;5008460;28;20198;-84
2023/12/01 00:34:06;;;;;;;14.20;12.57;;;4.90;99.90;;;;;;5014079;28;20214;-85
2023/12/01 00:36:32;;;;;;;14.70;12.43;;;5.10;99.90;;;;;;5022114;28;20197;-84
2023/12/01 00:38:58;;;;;;;16.13;12.80;;;4.60;99.90;;;;;;5014039;28;20190;-84
2023/12/01 00:41:23;;;;;;;14.70;11.70;;;5.40;99.90;;;;;;5013785;28;20179;-84
2023/12/01 00:43:49;;;;;;;13.60;11.13;;;5.00;99.90;;;;;;5011146;28;20211;-84
2023/12/01 00:46:15;;;;;;;13.60;11.50;;;5.50;99.90;;;;;;5010963;28;20186;-83
2023/12/01 00:48:40;;;;;;;13.10;11.07;;;5.10;99.90;;;;;;5011686;28;20559;-83
2023/12/01 00:51:17;;;;;;;14.20;11.70;;;5.30;99.90;;;;;;5012954;28;20210;-83
2023/12/01 00:53:43;;;;;;;13.85;12.18;;;5.70;99.90;;;;;;5011822;28;20767;-83
2023/12/01 00:56:13;;;;;;;14.07;12.23;;;5.20;99.90;;;;;;5018895;28;20214;-83
2023/12/01 00:58:38;;;;;;;13.52;12.23;;;5.20;99.90;;;;;;5025263;28;20540;-83
2023/12/01 01:01:05;;;;;;;13.93;12.40;;;5.50;99.90;;;;;;5014373;28;20210;-83
2023/12/01 01:03:31;;;;;;;15.60;12.88;;;5.30;99.90;;;;;;5025395;28;20210;-83
2023/12/01 01:05:57;;;;;;;13.60;12.13;;;5.40;99.90;;;;;;5016487;28;20591;-83
2023/12/01 01:08:22;;;;;;;13.63;12.23;;;5.40;99.90;;;;;;5018332;28;20182;-84
2023/12/01 01:10:48;;;;;;;14.03;12.57;;;5.10;99.90;;;;;;5013904;28;20190;-84
2023/12/01 01:13:14;;;;;;;14.57;12.30;;;5.10;99.90;;;;;;5008148;28;20659;-83
2023/12/01 01:15:40;;;;;;;17.90;13.53;;;5.20;99.90;;;;;;5005982;28;20194;-82
2023/12/01 01:18:06;;;;;;;14.53;13.03;;;5.40;99.90;;;;;;5012747;28;20460;-85
2023/12/01 01:20:32;;;;;;;15.50;12.70;;;5.10;99.90;;;;;;5013499;28;20173;-83
2023/12/01 01:22:58;;;;;;;13.98;12.18;;;5.10;99.90;;;;;;5008868;28;20210;-83
2023/12/01 01:25:23;;;;;;;14.47;12.13;;;5.10;99.90;;;;;;5010415;28;20222;-84
2023/12/01 01:27:49;;;;;;;14.03;11.97;;;5.00;99.90;;;;;;5014619;28;20289;-84
2023/12/01 01:30:15;;;;;;;14.37;12.83;;;5.10;99.90;;;;;;5016638;28;20222;-83
2023/12/01 01:32:40;;;;;;;13.10;11.70;;;5.00;99.90;;;;;;5011283;28;20204;-85
2023/12/01 01:35:06;;;;;;;13.20;11.80;;;5.20;99.90;;;;;;5034332;28;20497;-85
2023/12/01 01:37:32;;;;;;;12.80;11.50;;;4.80;99.90;;;;;;5018534;28;20614;-86
2023/12/01 01:39:57;;;;;;;13.40;11.77;;;5.20;99.90;;;;;;5008281;28;20537;-84
2023/12/01 01:42:23;;;;;;;13.63;12.23;;;5.30;99.90;;;;;;5013007;28;20193;-86
2023/12/01 01:44:48;;;;;;;14.43;12.17;;;5.00;99.90;;;;;;5010828;28;20629;-84
2023/12/01 01:47:14;;;;;;;15.33;12.23;;;4.80;99.90;;;;;;5008248;28;20194;-86
2023/12/01 01:49:39;;;;;;;14.27;12.20;;;4.60;99.90;;;;;;5010174;28;20189;-86
2023/12/01 01:52:05;;;;;;;14.73;12.83;;;5.10;99.90;;;;;;5012003;28;20197;-85
2023/12/01 01:54:32;;;;;;;15.70;14.00;;;5.00;99.90;;;;;;5019343;28;20200;-85
2023/12/01 01:56:58;;;;;;;15.50;12.55;;;4.90;99.90;;;;;;5019775;28;20453;-85
2023/12/01 01:59:25;;;;;;;15.70;14.07;;;4.90;99.90;;;;;;5004725;28;20254;-85
2023/12/01 02:01:51;;;;;;;14.18;12.75;;;4.50;99.90;;;;;;5013046;28;20194;-85
2023/12/01 02:04:17;;;;;;;15.27;13.60;;;4.10;99.90;;;;;;5017372;28;20572;-86
2023/12/01 02:06:45;;;;;;;16.93;14.30;;;4.20;99.90;;;;;;5014561;28;20447;-86
2023/12/01 02:09:14;;;;;;;17.73;13.02;;;4.80;99.90;;;;;;5014632;28;20452;-86
2023/12/01 02:11:40;;;;;;;17.48;13.45;;;4.60;99.90;;;;;;5008920;28;20778;-85
2023/12/01 02:14:06;;;;;;;16.95;13.90;;;4.60;99.90;;;;;;5004529;28;20216;-85
2023/12/01 02:16:31;;;;;;;16.07;13.27;;;4.60;99.90;;;;;;5011499;28;20189;-84
2023/12/01 02:18:57;;;;;;;16.70;13.43;;;4.40;99.90;;;;;;5015895;28;20444;-85
2023/12/01 02:21:27;;;;;;;14.55;12.90;;;5.00;99.90;;;;;;5022251;28;20221;-86
2023/12/01 02:23:53;;;;;;;15.88;13.60;;;4.30;99.90;;;;;;5011935;28;20197;-85
2023/12/01 02:26:19;;;;;;;14.25;12.75;;;4.30;99.90;;;;;;5014345;28;20657;-86
2023/12/01 02:28:45;;;;;;;15.13;13.35;;;4.20;99.90;;;;;;5004300;28;20531;-86
2023/12/01 02:31:11;;;;;;;14.70;12.60;;;4.10;99.90;;;;;;5008081;28;20241;-86
2023/12/01 02:33:36;;;;;;;21.87;14.97;;;4.10;99.90;;;;;;5025455;28;20477;-85
2023/12/01 02:36:04;;;;;;;15.23;12.77;;;4.10;99.90;;;;;;5004812;28;20188;-85
2023/12/01 02:38:30;;;;;;;14.23;12.70;;;3.90;99.90;;;;;;5015259;28;20192;-84
2023/12/01 02:40:55;;;;;;;16.37;13.40;;;3.80;99.90;;;;;;5015354;28;20547;-84
2023/12/01 02:43:21;;;;;;;15.20;13.60;;;4.20;99.90;;;;;;5007175;28;20788;-84
2023/12/01 02:45:47;;;;;;;16.60;14.70;;;4.30;99.90;;;;;;5006389;28;20714;-85
2023/12/01 02:48:13;;;;;;;17.23;13.60;;;4.60;99.90;;;;;;5012387;28;20510;-85
2023/12/01 02:50:38;;;;;;;17.47;14.10;;;4.20;99.90;;;;;;5006320;28;20194;-84
2023/12/01 02:53:05;;;;;;;16.93;15.03;;;4.00;99.90;;;;;;5017950;28;20468;-84
2023/12/01 02:55:31;;;;;;;18.20;14.68;;;4.30;99.90;;;;;;5012210;28;20198;-85
2023/12/01 02:57:56;;;;;;;19.47;14.50;;;4.00;99.90;;;;;;5011520;28;20190;-85
2023/12/01 03:00:23;;;;;;;15.20;13.40;;;4.00;99.90;;;;;;5015281;28;20315;-85
2023/12/01 03:02:50;;;;;;;20.90;15.23;;;4.00;99.90;;;;;;5014734;28;21118;-85
2023/12/01 03:05:16;;;;;;;15.85;13.85;;;3.50;99.90;;;;;;5012086;28;20706;-86
2023/12/01 03:07:42;;;;;;;15.68;13.77;;;3.50;99.90;;;;;;5006513;28;20191;-86
2023/12/01 03:10:08;;;;;;;18.27;15.80;;;3.90;99.90;;;;;;5013896;28;20284;-86
2023/12/01 03:12:34;;;;;;;17.40;14.63;;;3.70;99.90;;;;;;5013553;28;20572;-85
2023/12/01 03:15:00;;;;;;;16.52;13.60;;;3.70;99.90;;;;;;5011650;28;20687;-86
2023/12/01 03:17:25;;;;;;;16.27;14.57;;;3.40;99.90;;;;;;5016629;28;20279;-85
2023/12/01 03:19:51;;;;;;;18.07;14.97;;;3.30;99.90;;;;;;5013089;28;20193;-85
2023/12/01 03:22:18;;;;;;;18.60;15.50;;;3.30;99.90;;;;;;5013803;28;20191;-85
2023/12/01 03:24:47;;;;;;;19.42;16.23;;;3.40;99.90;;;;;;5012293;28;20688;-85
2023/12/01 03:27:14;;;;;;;21.40;16.55;;;3.40;99.90;;;;;;5015238;28;20672;-85
2023/12/01 03:29:40;;;;;;;20.13;16.08;;;3.10;99.90;;;;;;5025859;28;20664;-84
2023/12/01 03:32:06;;;;;;;16.60;14.60;;;3.70;99.90;;;;;;4997036;28;20192;-85
2023/12/01 03:34:31;;;;;;;17.30;15.40;;;3.40;99.90;;;;;;5014200;28;20286;-85
2023/12/01 03:36:57;;;;;;;17.30;15.57;;;;;;;;;;5031780;23;20239;-90
2023/12/01 03:39:23;;;;;;;17.17;14.83;;;3.30;99.90;;;;;;5034876;28;20210;-90
2023/12/01 03:41:48;;;;;;;20.00;16.57;;;2.70;99.90;;;;;;5027068;28;20471;-90
2023/12/01 03:44:15;;;;;;;20.03;15.67;;;;;;;;;;5031768;28;20217;-90
2023/12/01 03:46:40;;;;;;;16.65;14.75;;;3.50;99.90;;;;;;5040664;28;20643;-90
2023/12/01 03:49:06;;;;;;;19.73;16.50;;;2.90;99.90;;;;;;5036041;28;20208;-90
2023/12/01 03:51:32;;;;;;;17.30;15.00;;;;;;;;;;5033676;28;20453;-90
2023/12/01 03:53:58;;;;;;;19.80;15.40;;;3.40;99.90;;;;;;5035395;28;20216;-90
2023/12/01 03:56:23;;;;;;;20.60;15.47;;;4.30;99.90;;;;;;5042589;28;20445;-90
2023/12/01 03:58:54;;;;;;;18.37;15.47;;;4.40;99.90;;;;;;5036068;28;20190;-90
2023/12/01 04:01:20;;;;;;;21.60;16.33;;;4.80;99.90;;;;;;5033353;28;20202;-90
2023/12/01 04:03:45;;;;;;;18.70;15.63;;;3.10;99.90;;;;;;5045184;28;20203;-90
2023/12/01 04:06:11;;;;;;;19.67;16.23;;;;;;;;;;5044931;28;20578;-90
2023/12/01 04:08:37;;;;;;;17.70;15.40;;;3.20;99.90;;;;;;5054960;28;20668;-90
2023/12/01 04:11:03;;;;;;;17.00;15.20;;;3.20;99.90;;;;;;5022949;28;20278;-90
2023/12/01 04:13:29;;;;;;;20.38;16.92;;;3.30;99.90;;;;;;5038584;28;20234;-88
2023/12/01 04:15:55;;;;;;;20.40;17.20;;;2.60;99.90;;;;;;5038740;28;20873;-89
2023/12/01 04:18:21;;;;;;;18.50;16.50;;;;;;;;;;5046927;28;20193;-90
2023/12/01 04:20:47;;;;;;;20.85;17.70;;;3.50;99.90;;;;;;5039226;28;20625;-90
2023/12/01 04:23:14;;;;;;;20.67;17.67;;;3.40;99.90;;;;;;5019691;28;20269;-90
2023/12/01 04:25:46;;;;;;;21.05;17.45;;;2.70;99.90;;;;;;5039480;28;20442;-90
2023/12/01 04:28:13;;;;;;;18.52;16.42;;;3.70;99.90;;;;;;5034808;28;20611;-90
2023/12/01 04:30:39;;;;;;;20.60;18.40;;;;;;;;;;5033372;28;20187;-90
2023/12/01 04:33:05;;;;;;;19.60;17.10;;;3.70;99.90;;;;;;5026492;28;20738;-90
2023/12/01 04:35:32;;;;;;;19.23;16.13;;;3.60;99.90;;;;;;5037994;28;20207;-90
2023/12/01 04:38:00;;;;;;;19.55;17.02;;;3.70;99.90;;;;;;5040454;28;20689;-90
2023/12/01 04:40:27;;;;;;;17.33;15.52;;;3.80;99.90;;;;;;5037177;28;20185;-90
2023/12/01 04:42:55;;;;;;;17.70;14.85;;;4.60;99.90;;;;;;5036089;28;20778;-88
2023/12/01 04:45:24;;;;;;;18.98;16.98;;;3.60;99.90;;;;;;5036304;28;20193;-90
2023/12/01 04:47:51;;;;;;;18.08;16.17;;;4.60;99.90;;;;;;5034201;28;20189;-88
2023/12/01 04:50:18;;;;;;;17.85;15.90;;;3.20;99.90;;;;;;5037929;28;20201;-88
2023/12/01 04:52:46;;;;;;;16.63;14.85;;;3.80;99.90;;;;;;5045051;28;20207;-88
2023/12/01 04:55:18;;;;;;;18.83;15.68;;;2.90;99.90;;;;;;5035254;28;20211;-92
2023/12/01 04:57:45;;;;;;;16.88;15.13;;;3.80;99.90;;;;;;5032581;28;20186;-91
2023/12/01 05:00:19;;;;;;;16.80;13.48;;;3.60;99.90;;;;;;5033353;28;20218;-92
2023/12/01 05:02:53;;;;;;;15.18;13.57;;;3.80;99.90;;;;;;5031553;28;20181;-92
2023/12/01 05:05:20;;;;;;;15.85;14.30;;;3.60;99.90;;;;;;5034825;28;20214;-91
2023/12/01 05:07:49;;;;;;;14.55;13.05;;;4.90;99.90;;;;;;5037381;28;20651;-92
2023/12/01 05:10:16;;;;;;;16.70;15.00;;;3.20;99.90;;;;;;5032939;28;20202;-90
2023/12/01 05:12:49;;;;;;;15.38;13.15;;;3.00;99.90;;;;;;5033510;28;20216;-89
2023/12/01 05:15:18;;;;;;;19.25;16.70;;;2.80;99.90;;;;;;5057319;28;20286;-90
2023/12/01 05:18:10;;;;;;;18.52;16.55;;;3.70;99.90;;;;;;5049203;28;20208;-89
2023/12/01 05:20:36;;;;;;;18.50;15.40;;;3.60;99.90;;;;;;5049066;28;20188;-89
2023/12/01 05:23:07;;;;;;;19.02;16.73;;;4.20;99.90;;;;;;5052674;28;20191;-90
2023/12/01 05:25:33;;;;;;;16.42;14.73;;;3.40;99.90;;;;;;5038482;28;20184;-90
2023/12/01 05:28:00;;;;;;;19.47;16.57;;;3.40;99.90;;;;;;5032757;28;20190;-90
2023/12/01 05:30:28;;;;;;;16.88;14.45;;;3.60;99.90;;;;;;5051559;28;20175;-92
2023/12/01 05:32:55;;;;;;;16.23;13.80;;;3.30;99.90;;;;;;5035398;28;20202;-91
2023/12/01 05:35:21;;;;;;;16.08;14.38;;;4.70;99.90;;;;;;5035791;28;20185;-90
2023/12/01 05:37:49;;;;;;;15.37;13.77;;;3.80;99.90;;;;;;5035109;28;20193;-90
2023/12/01 05:40:20;;;;;;;16.25;13.80;;;4.10;99.90;;;;;;5036842;28;20438;-90
2023/12/01 05:42:47;;;;;;;16.52;14.80;;;3.20;99.90;;;;;;5037168;28;20189;-90
2023/12/01 05:45:14;;;;;;;16.10;13.85;;;2.50;99.90;;;;;;5040113;28;20219;-92
2023/12/01 05:47:44;;;;;;;16.38;14.77;;;3.20;99.90;;;;;;5040107;28;20243;-90
2023/12/01 05:50:15;;;;;;;17.20;14.93;;;3.60;99.90;;;;;;5033808;28;20187;-90
2023/12/01 05:52:43;;;;;;;15.55;13.95;;;3.60;99.90;;;;;;5045637;28;20198;-92
2023/12/01 05:55:17;;;;;;;15.40;13.80;;;3.10;99.90;;;;;;5063424;28;20203;-90
2023/12/01 05:57:51;;;;;;;17.27;15.27;;;2.90;99.90;;;;;;5046531;28;20279;-91
2023/12/01 06:00:20;;;;;;;15.95;14.32;;;3.00;99.90;;;;;;5022119;28;20246;-91
2023/12/01 06:02:46;;;;;;;16.35;14.40;;;3.40;99.90;;;;;;5039816;28;20189;-90
2023/12/01 06:05:15;;;;;;;14.65;12.77;;;2.50;99.90;;;;;;5042165;28;20553;-90
2023/12/01 06:07:43;;;;;;;15.52;13.90;;;3.30;99.90;;;;;;5031164;28;20660;-90
2023/12/01 06:10:13;;;;;;;14.55;13.10;;;3.10;99.90;;;;;;5040712;28;20183;-91
2023/12/01 06:12:39;;;;;;;14.75;13.25;;;3.10;99.90;;;;;;5049759;28;20684;-91
2023/12/01 06:15:07;;;;;;;15.55;13.90;;;2.60;99.90;;;;;;5029231;28;20814;-91
2023/12/01 06:17:33;;;;;;;15.38;13.63;;;3.60;99.90;;;;;;5031951;28;20225;-91
2023/12/01 06:20:00;;;;;;;14.40;12.97;;;4.00;99.90;;;;;;5061796;28;20205;-90
2023/12/01 06:22:25;;;;;;;14.57;13.20;;;3.60;99.90;;;;;;5037814;28;20492;-91
2023/12/01 06:24:51;;;;;;;14.53;13.03;;;;;;;;;;5037227;28;20203;-91
2023/12/01 06:27:17;;;;;;;16.87;12.80;;;3.60;99.90;;;;;;5046139;28;20258;-91
2023/12/01 06:29:44;;;;;;;16.17;14.47;;;;;;;;;;5053630;28;20444;-91
2023/12/01 06:32:10;;;;;;;14.60;13.10;;;3.70;99.90;;;;;;5046074;28;20215;-91
2023/12/01 06:34:35;;;;;;;12.97;11.67;;;4.00;99.90;;;;;;5040036;28;20234;-91
2023/12/01 06:37:01;;;;;;;14.83;13.33;;;;;;;;;;5041827;28;20465;-90
2023/12/01 06:39:27;;;;;;;14.55;13.02;;;3.20;99.90;;;;;;5039096;28;20196;-91
2023/12/01 06:41:53;;;;;;;13.45;12.13;;;3.10;99.90;;;;;;5052439;28;20214;-91
2023/12/01 06:44:20;;;;;;;14.13;12.63;;;4.20;99.90;;;;;;5045555;28;20746;-91
2023/12/01 06:46:45;;;;;;;14.35;12.93;;;3.60;99.90;;;;;;5035206;28;20440;-91
2023/12/01 06:49:11;;;;;;;15.17;13.57;;;;;;;;;;5043824;28;20687;-91
2023/12/01 06:51:37;;;;;;;14.77;13.25;;;3.40;99.90;;;;;;5033083;28;20252;-91
2023/12/01 06:54:03;;;;;;;14.27;12.77;;;3.70;99.90;;;;;;5036162;28;20685;-91
2023/12/01 06:56:28;;;;;;;14.93;13.43;;;3.80;99.90;;;;;;5036725;28;20195;-91
2023/12/01 06:58:55;;;;;;;17.13;12.33;;;4.90;99.90;;;;;;5036608;28;20261;-91
2023/12/01 07:01:21;;;;;;;15.05;12.88;;;5.40;99.90;;;;;;5041768;28;20200;-91
2023/12/01 07:03:47;;;;;;;13.10;11.67;;;;;;;;;;5039514;28;20432;-91
2023/12/01 07:06:13;;;;;;;14.10;12.70;;;3.50;99.90;;;;;;5035124;28;20191;-91
2023/12/01 07:08:40;;;;;;;13.25;11.82;;;3.70;99.90;;;;;;5032511;28;20238;-91
2023/12/01 07:11:06;;;;;;;14.35;11.68;;;4.20;99.90;;;;;;5036185;28;20665;-91
2023/12/01 07:13:31;;;;;;;13.27;11.95;;;3.90;99.90;;;;;;5029958;28;20218;-91
2023/12/01 07:15:58;;;;;;;13.10;11.80;;;4.20;99.90;;;;;;5041853;28;20200;-91
2023/12/01 07:18:26;;;;;;;14.10;12.10;;;3.80;99.90;;;;;;5047259;28;20217;-91
2023/12/01 07:20:51;;;;;;;14.18;12.68;;;3.60;99.90;;;;;;5037953;28;20183;-90
2023/12/01 07:23:17;;;;;;;12.27;10.77;;;4.20;99.90;;;;;;5036033;28;20695;-91
2023/12/01 07:25:47;;;;;;;12.80;11.50;;;3.70;99.90;;;;;;5016435;28;20254;-91
2023/12/01 07:28:13;;;;;;;15.02;12.63;;;3.90;99.90;;;;;;5037870;28;20246;-91
2023/12/01 07:30:40;;;;;;;13.70;12.30;;;5.50;99.90;;;;;;5019067;28;20261;-88
2023/12/01 07:33:07;;;;;;;13.82;12.40;;;3.70;99.90;;;;;;5045508;28;20210;-86
2023/12/01 07:35:34;;;;;;;17.23;12.35;;;3.20;99.90;;;;;;5052032;28;20168;-88
2023/12/01 07:37:59;;;;;;;17.00;11.13;;;3.90;99.90;;;;;;5039676;28;20206;-88
2023/12/01 07:40:27;;;;;;;14.60;12.20;;;3.60;99.90;;;;;;5034931;28;20191;-87
2023/12/01 07:42:55;;;;;;;14.65;12.10;;;4.00;99.90;;;;;;5019488;28;20305;-88
2023/12/01 07:45:21;;;;;;;15.98;12.45;;;3.70;99.90;;;;;;5041046;28;20615;-89
2023/12/01 07:47:49;;;;;;;13.90;12.50;;;3.50;99.90;;;;;;5035557;28;20184;-88
2023/12/01 07:50:16;;;;;;;13.13;11.73;;;3.20;99.90;;;;;;5033252;28;20189;-88
2023/12/01 07:52:42;;;;;;;14.45;11.82;;;3.50;99.90;;;;;;5036946;28;20209;-86
2023/12/01 07:55:09;;;;;;;14.80;12.73;;;3.50;99.90;;;;;;5034164;28;20215;-88
2023/12/01 07:57:35;;;;;;;15.20;12.10;;;3.80;99.90;;;;;;5027346;28;20285;-88
2023/12/01 08:00:01;;;;;;;15.38;12.82;;;3.70;99.90;;;;;;5044741;28;20187;-89
2023/12/01 08:02:27;;;;;;;16.13;12.60;;;3.50;99.90;;;;;;5045990;28;20191;-89
2023/12/01 08:04:54;;;;;;;14.70;13.00;;;4.10;99.90;;;;;;5052265;28;20218;-88
2023/12/01 08:07:19;;;;;;;14.70;11.80;;;3.90;99.90;;;;;;5038156;28;20192;-87
2023/12/01 08:09:44;;;;;;;16.43;12.80;;;3.70;99.90;;;;;;5044881;28;20458;-89
2023/12/01 08:12:10;;;;;;;15.27;12.40;;;3.60;99.90;;;;;;5043961;28;20181;-89
2023/12/01 08:14:36;;;;;;;15.33;12.73;;;3.50;99.90;;;;;;5038791;28;20285;-89
2023/12/01 08:17:01;;;;;;;15.47;13.80;;;4.10;99.90;;;;;;5039255;28;20193;-88
2023/12/01 08:19:27;;;;;;;14.37;12.83;;;3.90;99.90;;;;;;5031779;28;20195;-89
2023/12/01 08:21:53;;;;;;;14.13;12.32;;;3.70;99.90;;;;;;5034687;28;20180;-89
2023/12/01 08:24:20;;;;;;;16.83;14.00;;;4.00;99.90;;;;;;5031357;28;20214;-89
2023/12/01 08:26:47;;;;;;;15.35;12.05;;;3.60;99.90;;;;;;5036728;28;20199;-90
2023/12/01 08:29:12;;;;;;;17.27;12.10;;;3.90;99.90;;;;;;5046562;28;20203;-90
2023/12/01 08:31:39;;;;;;;14.10;12.70;;;4.30;99.90;;;;;;5051738;28;20204;-90
2023/12/01 08:34:07;;;;;;;14.45;11.95;;;3.90;99.90;;;;;;5054212;28;20216;-89
2023/12/01 08:36:34;;;;;;;13.82;12.23;;;4.20;99.90;;;;;;5123369;22;20234;-91
2023/12/01 08:39:00;;;;;;;16.33;12.88;;;3.20;99.90;;;;;;5067547;28;20162;-89
2023/12/01 08:41:25;;;;;;;16.20;12.70;;;3.20;99.90;;;;;;5045904;28;20254;-90
2023/12/01 08:43:51;;;;;;;14.90;12.70;;;;;;;;;;5049196;28;20220;-89
2023/12/01 08:46:17;;;;;;;13.45;11.40;;;3.80;99.90;;;;;;5033933;28;20280;-92
2023/12/01 08:48:43;;;;;;;13.87;12.40;;;3.60;99.90;;;;;;5020434;28;20220;-91
2023/12/01 08:51:08;;;;;;;13.20;11.77;;;3.80;99.90;;;;;;5010282;28;20191;-91
2023/12/01 08:53:34;;;;;;;12.30;10.33;;;;;;;;;;5028229;28;20219;-91
2023/12/01 08:56:00;;;;;;;13.82;11.52;;;4.10;99.90;;;;;;5017750;28;20184;-90
2023/12/01 08:58:26;;;;;;;13.67;12.00;;;3.30;99.90;;;;;;5015893;28;20228;-90
2023/12/01 09:00:52;;;;;;;12.83;11.27;;;;;;;;;;5015169;28;20288;-90
2023/12/01 09:03:17;;;;;;;13.20;11.40;;;4.10;99.90;;;;;;5021807;28;20662;-90
2023/12/01 09:05:43;;;;;;;17.13;15.30;;;;;;;;;;5016845;28;20186;-89
2023/12/01 09:08:09;;;;;;;14.17;12.13;;;4.00;99.90;;;;;;5031984;28;20191;-90
2023/12/01 09:10:36;;;;;;;16.40;14.37;;;3.60;99.90;;;;;;5011158;28;20442;-92
2023/12/01 09:13:01;;;;;;;15.65;13.90;;;4.00;99.90;;;;;;5016065;28;20588;-89
2023/12/01 09:15:27;;;;;;;14.60;13.10;;;3.80;99.90;;;;;;5013043;28;20189;-90
2023/12/01 09:17:53;;;;;;;15.37;13.30;;;;;;;;;;5032086;28;20538;-89
2023/12/01 09:20:19;;;;;;;13.85;12.45;;;4.10;99.90;;;;;;5028751;28;20288;-90
2023/12/01 09:22:46;;;;;;;16.17;13.70;;;3.90;99.90;;;;;;5017034;28;20184;-90
2023/12/01 09:25:11;;;;;;;15.95;13.15;;;3.70;99.90;;;;;;5016971;28;20217;-90
2023/12/01 09:27:37;;;;;;;21.10;16.57;;;;;;;;;;5013906;28;20239;-90
2023/12/01 09:30:04;;;;;;;16.00;14.40;;;4.30;99.90;;;;;;5030548;28;20592;-91
2023/12/01 09:32:30;;;;;;;16.35;12.70;;;4.10;99.90;;;;;;5016102;28;20643;-89
2023/12/01 09:34:56;;;;;;;13.10;11.70;;;4.70;99.90;;;;;;5000959;28;20204;-89
2023/12/01 09:37:23;;;;;;;13.33;11.53;;;4.30;99.90;;;;;;5021475;28;20458;-87
2023/12/01 09:39:49;;;;;;;14.52;11.75;;;4.10;99.90;;;;;;5013528;28;20185;-88
2023/12/01 09:42:16;;;;;;;14.23;12.77;;;4.30;99.90;;;;;;5032897;28;20231;-87
2023/12/01 09:44:42;;;;;;;14.10;12.55;;;4.50;99.90;;;;;;5010529;28;20201;-87
2023/12/01 09:47:16;;;;;;;14.80;13.15;;;4.10;99.90;;;;;;5015798;28;20196;-87
2023/12/01 09:49:44;;;;;;;13.35;11.60;;;4.10;99.90;;;;;;5031423;28;20179;-87
2023/12/01 09:52:10;;;;;;;15.50;12.27;;;4.10;99.90;;;;;;5013424;28;20192;-87
2023/12/01 09:54:35;;;;;;;13.23;11.77;;;4.50;99.90;;;;;;5013040;28;20350;-87
2023/12/01 09:57:06;;;;;;;16.03;13.20;;;4.30;99.90;;;;;;5010038;28;20184;-87
2023/12/01 09:59:35;;;;;;;15.13;12.45;;;4.30;99.90;;;;;;5014147;28;20238;-87
2023/12/01 10:02:02;;;;;;;14.30;12.35;;;4.50;99.90;;;;;;5018019;28;20189;-88
2023/12/01 10:04:29;;;;;;;14.82;11.68;;;4.20;99.90;;;;;;5031408;28;20643;-87
2023/12/01 10:06:56;;;;;;;14.93;13.00;;;4.60;99.90;;;;;;5045507;28;20186;-87
2023/12/01 10:09:32;;;;;;;13.93;12.38;;;4.20;99.90;;;;;;5029420;28;20174;-87
2023/12/01 10:12:12;;;;;;;14.18;12.63;;;4.30;99.90;;;;;;5037173;28;20193;-87
2023/12/01 10:14:41;;;;;;;14.07;12.57;;;4.40;99.90;;;;;;5015302;28;20278;-87
2023/12/01 10:17:12;;;;;;;12.93;11.55;;;4.50;99.90;;;;;;5019956;28;20182;-87
2023/12/01 10:19:47;;;;;;;17.48;12.60;;;4.40;99.90;;;;;;5033291;28;20171;-88
2023/12/01 10:22:16;;;;;;;14.55;11.68;;;4.40;99.90;;;;;;5017342;28;20265;-88
2023/12/01 10:25:03;;;;;;;14.43;13.02;;;4.20;99.90;;;;;;5012869;28;20232;-89
2023/12/01 10:27:29;;;;;;;14.30;12.60;;;4.20;99.90;;;;;;5029141;28;20185;-89
2023/12/01 10:30:13;;;;;;;14.23;12.73;;;3.80;99.90;;;;;;5020265;28;20197;-88
2023/12/01 10:32:40;;;;;;;17.02;14.73;;;4.30;99.90;;;;;;5008315;28;20300;-89
2023/12/01 10:35:06;;;;;;;15.90;13.10;;;4.40;99.90;;;;;;5018819;28;20198;-89
2023/12/01 10:37:33;;;;;;;16.13;13.20;;;4.00;99.90;;;;;;5013368;28;20197;-90
2023/12/01 10:40:01;;;;;;;14.77;13.18;;;3.90;99.90;;;;;;5018246;28;20223;-88
2023/12/01 10:42:31;;;;;;;19.15;14.80;;;4.40;99.90;;;;;;5031575;28;20221;-89
2023/12/01 10:44:59;;;;;;;21.08;14.07;;;4.10;99.90;;;;;;5050094;28;20199;-89
2023/12/01 10:47:25;;;;;;;15.80;13.63;;;4.00;99.90;;;;;;5036924;28;20196;-89
2023/12/01 10:49:54;;;;;;;19.25;14.45;;;4.10;99.90;;;;;;5040621;28;20170;-89
2023/12/01 10:52:20;;;;;;;17.75;14.25;;;4.30;99.90;;;;;;5025242;28;20216;-89
2023/12/01 10:54:47;;;;;;;15.97;14.20;;;4.10;99.90;;;;;;5012792;28;20198;-89
2023/12/01 10:57:33;;;;;;;18.98;15.02;;;3.90;99.90;;;;;;5015259;28;20812;-90
2023/12/01 11:00:04;;;;;;;17.33;14.20;;;3.80;99.90;;;;;;5035010;28;20683;-89
2023/12/01 11:02:31;;;;;;;17.85;15.43;;;4.10;99.90;;;;;;5017295;28;20179;-89
2023/12/01 11:04:57;;;;;;;22.05;16.48;;;3.90;99.90;;;;;;5018439;28;21120;-90
2023/12/01 11:07:43;;;;;;;17.52;14.07;;;4.00;99.90;;;;;;5013826;28;20690;-89
2023/12/01 11:10:46;;;;;;;24.50;18.02;;;4.20;99.90;;;;;;5030283;28;20273;-89
2023/12/01 11:13:22;;;;;;;20.33;15.57;;;4.10;99.90;;;;;;5013911;28;20217;-89
2023/12/01 11:15:54;;;;;;;17.02;14.60;;;4.50;99.90;;;;;;5025600;28;20202;-88
2023/12/01 11:18:19;;;;;;;18.67;15.63;;;4.30;99.90;;;;;;5012603;28;20196;-89
2023/12/01 11:20:46;;;;;;;19.77;15.77;;;4.20;99.90;;;;;;5017368;28;20644;-89
2023/12/01 11:23:12;;;;;;;20.88;17.30;;;4.20;99.90;;;;;;5018812;28;20263;-89
2023/12/01 11:25:50;;;;;;;21.63;16.70;;;4.30;99.90;;;;;;5024296;28;20219;-89
2023/12/01 11:28:32;;;;;;;21.95;15.43;;;4.00;99.90;;;;;;5025846;28;20657;-89
2023/12/01 11:31:09;;;;;;;20.90;15.95;;;4.20;99.90;;;;;;5033290;28;20285;-89
2023/12/01 11:33:39;;;;;;;22.13;16.63;;;4.40;99.90;;;;;;5033786;28;20319;-89
2023/12/01 11:36:21;;;;;;;23.02;17.48;;;3.90;99.90;;;;;;5018634;28;20266;-89
2023/12/01 11:39:27;;;;;;;22.52;17.60;;;4.40;99.90;;;;;;5018768;28;20191;-89
2023/12/01 11:42:01;;;;;;;21.55;16.17;;;4.20;99.90;;;;;;5016975;28;20182;-89
2023/12/01 11:44:30;;;;;;;25.48;18.30;;;4.20;99.90;;;;;;5013815;28;20312;-89
2023/12/01 11:46:57;;;;;;;24.92;18.80;;;4.40;99.90;;;;;;5009053;28;20187;-89
2023/12/01 11:49:30;;;;;;;24.48;17.80;;;4.40;99.90;;;;;;5018050;28;20252;-89
2023/12/01 11:51:57;;;;;;;25.45;19.70;;;4.30;99.90;;;;;;5014311;28;20648;-89
2023/12/01 11:54:23;;;;;;;26.52;18.60;;;4.10;99.90;;;;;;5030206;28;20687;-89
2023/12/01 11:56:55;;;;;;;26.67;20.67;;;4.60;99.90;;;;;;5010467;28;20902;-89
2023/12/01 11:59:21;;;;;;;27.33;19.77;;;4.60;99.90;;;;;;5013782;28;20261;-83
2023/12/01 12:01:47;;;;;;;27.70;21.20;;;4.50;99.90;;;;;;5013040;28;20184;-84
2023/12/01 12:04:16;;;;;;;24.67;18.50;;;4.30;99.90;;;;;;5020865;28;20472;-84
2023/12/01 12:06:44;;;;;;;26.35;19.50;;;3.90;99.90;;;;;;5016380;28;20439;-84
2023/12/01 12:09:10;;;;;;;26.08;19.23;;;4.30;99.90;;;;;;5015494;28;20233;-85
2023/12/01 12:11:36;;;;;;;28.65;20.25;;;4.00;99.90;;;;;;5033194;28;20213;-85
2023/12/01 12:14:04;;;;;;;27.13;20.90;;;4.30;99.90;;;;;;5018859;28;20490;-85
2023/12/01 12:16:30;;;;;;;27.50;21.48;;;4.10;99.90;;;;;;5030768;28;20224;-85
2023/12/01 12:19:02;;;;;;;28.90;19.92;;;4.30;99.90;;;;;;5029373;28;20409;-85
2023/12/01 12:21:28;;;;;;;24.70;19.15;;;4.00;99.90;;;;;;5014994;28;20658;-85
2023/12/01 12:23:55;;;;;;;25.90;19.27;;;4.30;99.90;;;;;;5017006;28;20217;-85
2023/12/01 12:26:26;;;;;;;25.95;19.20;;;4.20;99.90;;;;;;5026141;28;20193;-85
2023/12/01 12:29:03;;;;;;;25.77;21.08;;;4.00;99.90;;;;;;5017765;28;20630;-85
2023/12/01 12:31:35;;;;;;;26.77;19.85;;;4.00;99.90;;;;;;5040063;28;20184;-85
2023/12/01 12:34:03;;;;;;;30.63;22.02;;;4.00;99.90;;;;;;5041376;28;20434;-85
2023/12/01 12:36:30;;;;;;;27.13;20.88;;;4.30;99.90;;;;;;5018123;28;20652;-85
2023/12/01 12:39:04;;;;;;;27.73;19.38;;;4.20;99.90;;;;;;5042308;28;20293;-85
2023/12/01 12:41:34;;;;;;;27.05;20.85;;;4.40;99.90;;;;;;5023409;28;20202;-85